Norwichtown, Connecticut
Current Conditions -  °F | °C
As of 10:52 AM on Friday 21 Nov 2014 (Local Time) from KIJD Reporting Station
Clear Clear  
Wind Chill: 22°   Ceiling: Unl
Heat Index: 32°   Visibility: 10mi
Dew Point: 10°   Wind: 14mph
Humidity: 40%   Direction: 310°NW
Pressure: 30.18"   Gusts: 25mph
Location:  41.5523°N, 72.0921°W
Report Text: KIJD 211552Z AUTO 31012G22KT 270V340 10SM CLR 00/M12 A3018 RMK AO2 SLP223 T00001122
Loading
Personal Weather Stations






























Interactive Weather Map New forecast layout! Learn more

10-Day Weather Forecast

Advertisements
Track Severe Weather on mobile